createdAt,value
2022-07-30T00:00:27.549Z,15.26
2022-07-30T00:02:55.486Z,15.27
2022-07-30T00:05:23.471Z,15.27
2022-07-30T00:07:51.543Z,15.22
2022-07-30T00:10:20.714Z,15.23
2022-07-30T00:12:48.660Z,15.20
2022-07-30T00:15:18.134Z,15.17
2022-07-30T00:17:47.089Z,15.19
2022-07-30T00:20:17.347Z,15.22
2022-07-30T00:22:46.798Z,15.21
2022-07-30T00:25:14.745Z,15.23
2022-07-30T00:27:43.131Z,15.23
2022-07-30T00:30:12.018Z,15.22
2022-07-30T00:32:41.479Z,15.26
2022-07-30T00:35:10.332Z,15.23
2022-07-30T00:37:38.232Z,15.20
2022-07-30T00:40:07.818Z,15.19
2022-07-30T00:42:40.531Z,15.18
2022-07-30T00:45:09.496Z,15.17
2022-07-30T00:47:38.050Z,15.17
2022-07-30T00:50:09.927Z,15.12
2022-07-30T00:52:39.128Z,15.13
2022-07-30T00:55:08.745Z,15.13
2022-07-30T00:57:36.776Z,15.09
2022-07-30T01:00:07.704Z,15.03
2022-07-30T01:02:35.704Z,15.04
2022-07-30T01:05:03.722Z,15.06
2022-07-30T01:07:33.174Z,15.07
2022-07-30T01:10:01.114Z,15.08
2022-07-30T01:12:29.605Z,15.08
2022-07-30T01:14:58.916Z,15.10
2022-07-30T01:17:27.004Z,15.09
2022-07-30T01:20:00.279Z,15.08
2022-07-30T01:22:43.817Z,15.09
2022-07-30T01:25:18.460Z,15.12
2022-07-30T01:27:53.283Z,15.12
2022-07-30T01:30:24.886Z,15.12
2022-07-30T01:32:55.634Z,15.06
2022-07-30T01:35:25.766Z,15.00
2022-07-30T01:37:55.751Z,14.96
2022-07-30T01:40:26.336Z,14.93
2022-07-30T01:42:58.480Z,14.93
2022-07-30T01:45:29.264Z,14.94
2022-07-30T01:48:01.354Z,14.92
2022-07-30T01:50:31.870Z,14.96
2022-07-30T01:53:00.324Z,14.92
2022-07-30T01:55:31.830Z,14.93
2022-07-30T01:58:02.258Z,14.93
2022-07-30T02:00:31.637Z,14.90
2022-07-30T02:02:59.794Z,14.91
2022-07-30T02:05:31.697Z,14.95
2022-07-30T02:08:06.748Z,14.94
2022-07-30T02:10:37.632Z,14.88
2022-07-30T02:13:08.861Z,14.88
2022-07-30T02:15:42.692Z,14.85
2022-07-30T02:18:16.341Z,14.84
2022-07-30T02:20:49.561Z,14.84
2022-07-30T02:23:19.614Z,14.85
2022-07-30T02:25:51.403Z,14.88
2022-07-30T02:28:23.635Z,14.91
2022-07-30T02:30:54.619Z,14.92
2022-07-30T02:33:26.546Z,14.91
2022-07-30T02:35:56.294Z,14.89
2022-07-30T02:38:25.497Z,14.83
2022-07-30T02:40:55.499Z,14.83
2022-07-30T02:43:26.797Z,14.78
2022-07-30T02:45:55.559Z,14.73
2022-07-30T02:48:34.602Z,14.73
2022-07-30T02:51:05.557Z,14.72
2022-07-30T02:53:34.091Z,14.76
2022-07-30T02:56:03.132Z,14.79
2022-07-30T02:58:33.670Z,14.80
2022-07-30T03:01:03.238Z,14.73
2022-07-30T03:03:32.834Z,14.76
2022-07-30T03:06:02.415Z,14.78
2022-07-30T03:08:33.148Z,14.80
2022-07-30T03:11:01.771Z,14.83
2022-07-30T03:13:29.960Z,14.85
2022-07-30T03:16:00.346Z,14.83
2022-07-30T03:18:34.092Z,14.82
2022-07-30T03:21:03.048Z,14.79
2022-07-30T03:23:36.671Z,14.79
2022-07-30T03:26:06.696Z,14.76
2022-07-30T03:28:39.186Z,14.78
2022-07-30T03:31:10.616Z,14.82
2022-07-30T03:33:41.211Z,14.83
2022-07-30T03:36:10.763Z,14.84
2022-07-30T03:38:40.486Z,14.83
2022-07-30T03:41:09.404Z,14.84
2022-07-30T03:43:38.963Z,14.82
2022-07-30T03:46:10.833Z,14.80
2022-07-30T03:48:40.851Z,14.81
2022-07-30T03:51:10.435Z,14.84
2022-07-30T03:53:41.112Z,14.86
2022-07-30T03:56:09.726Z,14.87
2022-07-30T03:58:39.550Z,14.90
2022-07-30T04:01:08.905Z,14.90
2022-07-30T04:03:36.910Z,14.88
2022-07-30T04:06:05.099Z,14.85
2022-07-30T04:08:33.016Z,14.88
2022-07-30T04:11:00.952Z,14.92
2022-07-30T04:13:28.865Z,14.92
2022-07-30T04:16:38.277Z,14.95
2022-07-30T04:18:55.915Z,14.98
2022-07-30T04:21:27.010Z,14.99
2022-07-30T04:24:02.316Z,15.08
2022-07-30T04:26:33.977Z,15.19
2022-07-30T04:29:03.004Z,15.29
2022-07-30T04:31:37.517Z,15.34
2022-07-30T04:34:13.784Z,15.34
2022-07-30T04:36:42.556Z,15.35
2022-07-30T04:39:11.170Z,15.41
2022-07-30T04:41:49.595Z,15.45
2022-07-30T04:44:18.693Z,15.48
2022-07-30T04:46:46.808Z,15.53
2022-07-30T04:49:18.979Z,15.60
2022-07-30T04:51:47.932Z,15.66
2022-07-30T04:54:17.143Z,15.73
2022-07-30T04:56:53.102Z,15.77
2022-07-30T04:59:25.037Z,15.80
2022-07-30T05:01:55.362Z,15.86
2022-07-30T05:04:26.461Z,15.90
2022-07-30T05:06:55.451Z,15.92
2022-07-30T05:09:24.125Z,15.97
2022-07-30T05:11:53.110Z,16.01
2022-07-30T05:14:21.327Z,16.08
2022-07-30T05:16:49.244Z,16.15
2022-07-30T05:19:17.827Z,16.19
2022-07-30T05:21:47.451Z,16.22
2022-07-30T05:24:16.039Z,16.23
2022-07-30T05:26:43.973Z,16.27
2022-07-30T05:29:14.923Z,16.29
2022-07-30T05:31:48.510Z,16.31
2022-07-30T05:34:16.588Z,16.36
2022-07-30T05:36:46.180Z,16.41
2022-07-30T05:39:14.243Z,16.45
2022-07-30T05:41:42.205Z,16.48
2022-07-30T05:44:10.232Z,16.52
2022-07-30T05:46:38.177Z,16.56
2022-07-30T05:49:06.526Z,16.68
2022-07-30T05:51:34.659Z,16.73
2022-07-30T05:54:04.248Z,16.79
2022-07-30T05:56:32.192Z,16.85
2022-07-30T05:59:00.112Z,16.90
2022-07-30T06:01:28.188Z,16.95
2022-07-30T06:03:56.100Z,16.98
2022-07-30T06:06:24.039Z,17.06
2022-07-30T06:08:52.260Z,17.16
2022-07-30T06:11:21.627Z,17.28
2022-07-30T06:13:49.514Z,17.36
2022-07-30T06:16:17.417Z,17.55
2022-07-30T06:18:45.411Z,17.78
2022-07-30T06:21:13.272Z,17.91
2022-07-30T06:23:41.211Z,18.00
2022-07-30T06:26:09.153Z,17.97
2022-07-30T06:28:39.261Z,18.20
2022-07-30T06:31:07.557Z,18.49
2022-07-30T06:33:35.793Z,18.29
2022-07-30T06:36:03.714Z,18.28
2022-07-30T06:38:31.773Z,18.23
2022-07-30T06:41:02.978Z,18.54
2022-07-30T06:43:32.811Z,18.75
2022-07-30T06:46:02.097Z,19.04
2022-07-30T06:48:31.549Z,19.19
2022-07-30T06:50:59.666Z,19.36
2022-07-30T06:53:27.614Z,19.37
2022-07-30T06:55:58.353Z,19.33
2022-07-30T06:58:29.307Z,19.37
2022-07-30T07:00:57.405Z,19.54
2022-07-30T07:03:40.317Z,19.74
2022-07-30T07:06:08.718Z,19.95
2022-07-30T07:08:37.300Z,20.13
2022-07-30T07:11:05.589Z,20.43
2022-07-30T07:13:33.504Z,20.48
2022-07-30T07:16:01.480Z,20.63
2022-07-30T07:18:30.816Z,20.68
2022-07-30T07:20:58.956Z,20.84
2022-07-30T07:23:39.825Z,20.89
2022-07-30T07:26:11.283Z,20.91
2022-07-30T07:28:40.199Z,21.02
2022-07-30T07:31:08.330Z,21.05
2022-07-30T07:33:37.932Z,21.10
2022-07-30T07:36:06.424Z,21.35
2022-07-30T07:38:34.467Z,21.44
2022-07-30T07:41:02.403Z,21.53
2022-07-30T07:43:30.380Z,21.40
2022-07-30T07:45:58.728Z,21.38
2022-07-30T07:48:26.674Z,21.25
2022-07-30T07:50:59.950Z,21.17
2022-07-30T07:53:28.603Z,21.19
2022-07-30T07:55:57.255Z,21.20
2022-07-30T07:58:26.527Z,21.25
2022-07-30T08:00:55.190Z,21.29
2022-07-30T08:03:23.230Z,21.27
2022-07-30T08:05:55.878Z,21.24
2022-07-30T08:08:36.693Z,21.23
2022-07-30T08:11:05.757Z,21.23
2022-07-30T08:13:49.106Z,21.35
2022-07-30T08:16:20.377Z,21.41
2022-07-30T08:18:48.496Z,21.58
2022-07-30T08:21:16.439Z,21.69
2022-07-30T08:23:45.807Z,21.75
2022-07-30T08:26:13.764Z,21.91
2022-07-30T08:28:43.163Z,21.95
2022-07-30T08:31:11.290Z,21.97
2022-07-30T08:33:39.239Z,22.02
2022-07-30T08:36:09.726Z,22.06
2022-07-30T08:38:38.854Z,22.09
2022-07-30T08:41:08.452Z,22.14
2022-07-30T08:43:37.675Z,22.11
2022-07-30T08:46:10.027Z,22.10
2022-07-30T08:48:38.850Z,22.33
2022-07-30T08:51:07.150Z,22.49
2022-07-30T08:53:35.607Z,22.48
2022-07-30T08:56:04.566Z,22.41
2022-07-30T08:58:35.496Z,22.25
2022-07-30T09:01:03.548Z,22.21
2022-07-30T09:03:32.713Z,22.20
2022-07-30T09:06:02.347Z,22.14
2022-07-30T09:08:30.356Z,22.20
2022-07-30T09:10:58.748Z,22.28
2022-07-30T09:13:28.311Z,22.27
2022-07-30T09:15:58.411Z,22.32
2022-07-30T09:18:31.550Z,22.24
2022-07-30T09:21:01.379Z,22.31
2022-07-30T09:23:29.990Z,22.36
2022-07-30T09:26:00.956Z,22.39
2022-07-30T09:28:32.257Z,22.36
2022-07-30T09:31:01.819Z,22.34
2022-07-30T09:33:35.065Z,22.46
2022-07-30T09:36:04.446Z,22.52
2022-07-30T09:38:43.797Z,22.50
2022-07-30T09:41:29.100Z,22.49
2022-07-30T09:44:02.807Z,22.46
2022-07-30T09:46:45.036Z,22.34
2022-07-30T09:49:17.655Z,22.43
2022-07-30T09:51:54.330Z,22.43
2022-07-30T09:54:25.375Z,22.45
2022-07-30T09:57:22.866Z,22.47
2022-07-30T09:59:56.598Z,22.42
2022-07-30T10:02:32.884Z,22.38
2022-07-30T10:05:15.406Z,22.36
2022-07-30T10:07:52.286Z,22.30
2022-07-30T10:10:25.320Z,22.26
2022-07-30T10:12:58.035Z,22.28
2022-07-30T10:15:29.601Z,22.33
2022-07-30T10:18:00.606Z,22.35
2022-07-30T10:20:29.470Z,22.43
2022-07-30T10:22:58.341Z,22.57
2022-07-30T10:25:28.399Z,22.59
2022-07-30T10:27:57.286Z,22.61
2022-07-30T10:30:29.413Z,22.63
2022-07-30T10:33:00.322Z,22.69
2022-07-30T10:35:35.042Z,22.66
2022-07-30T10:38:13.927Z,22.66
2022-07-30T10:40:48.895Z,22.67
2022-07-30T10:44:15.841Z,22.61
2022-07-30T10:46:52.144Z,22.63
2022-07-30T10:49:21.756Z,22.69
2022-07-30T10:51:52.396Z,22.72
2022-07-30T10:54:44.680Z,22.71
2022-07-30T10:57:23.017Z,22.69
2022-07-30T11:00:15.355Z,22.72
2022-07-30T11:03:17.137Z,22.79
2022-07-30T11:05:49.819Z,22.83
2022-07-30T11:08:48.599Z,22.85
2022-07-30T11:12:02.200Z,22.90
2022-07-30T11:15:07.269Z,22.90
2022-07-30T11:18:12.510Z,22.91
2022-07-30T11:20:43.129Z,22.94
2022-07-30T11:23:45.946Z,22.96
2022-07-30T11:26:47.343Z,23.01
2022-07-30T11:29:50.571Z,22.98
2022-07-30T11:32:32.066Z,22.95
2022-07-30T11:35:23.031Z,22.89
2022-07-30T11:38:19.104Z,22.83
2022-07-30T11:41:12.940Z,22.78
2022-07-30T11:43:41.791Z,22.73
2022-07-30T11:46:11.260Z,22.69
2022-07-30T11:48:43.124Z,22.68
2022-07-30T11:51:11.494Z,22.68
2022-07-30T11:53:39.429Z,22.73
2022-07-30T11:56:09.495Z,22.75
2022-07-30T11:58:44.796Z,22.80
2022-07-30T12:01:15.660Z,22.83
2022-07-30T12:03:45.717Z,22.86
2022-07-30T12:06:18.186Z,22.89
2022-07-30T12:08:48.508Z,22.91
2022-07-30T12:11:16.653Z,22.92
2022-07-30T12:13:57.170Z,22.93
2022-07-30T12:16:24.846Z,22.86
2022-07-30T12:18:52.902Z,22.91
2022-07-30T12:21:21.334Z,22.95
2022-07-30T12:23:56.562Z,22.96
2022-07-30T12:26:26.980Z,22.95
2022-07-30T12:28:57.819Z,22.97
2022-07-30T12:31:26.107Z,22.94
2022-07-30T12:33:58.274Z,22.90
2022-07-30T12:36:30.933Z,22.82
2022-07-30T12:38:59.620Z,22.83
2022-07-30T12:41:43.025Z,22.74
2022-07-30T12:44:12.596Z,22.67
2022-07-30T12:46:42.245Z,22.66
2022-07-30T12:49:21.932Z,22.59
2022-07-30T12:51:52.011Z,22.46
2022-07-30T12:54:21.165Z,22.52
2022-07-30T12:57:01.007Z,22.48
2022-07-30T12:59:31.779Z,22.41
2022-07-30T13:02:01.068Z,22.32
2022-07-30T13:04:29.209Z,22.34
2022-07-30T13:07:08.072Z,22.33
2022-07-30T13:09:36.332Z,22.32
2022-07-30T13:12:04.808Z,22.29
2022-07-30T13:14:34.209Z,22.27
2022-07-30T13:17:04.019Z,22.24
2022-07-30T13:19:32.494Z,22.24
2022-07-30T13:22:00.450Z,22.21
2022-07-30T13:24:28.411Z,22.19
2022-07-30T13:26:56.274Z,22.17
2022-07-30T13:29:24.177Z,22.17
2022-07-30T13:31:53.457Z,22.18
2022-07-30T13:34:21.628Z,22.18
2022-07-30T13:36:49.597Z,22.17
2022-07-30T13:39:17.520Z,22.19
2022-07-30T13:41:45.697Z,22.24
2022-07-30T13:44:13.647Z,22.25
2022-07-30T13:46:41.861Z,22.34
2022-07-30T13:49:11.386Z,22.43
2022-07-30T13:51:39.594Z,22.47
2022-07-30T13:54:07.885Z,22.48
2022-07-30T13:56:40.725Z,22.50
2022-07-30T13:59:09.168Z,22.55
2022-07-30T14:01:38.144Z,22.60
2022-07-30T14:04:06.921Z,22.66
2022-07-30T14:06:36.305Z,22.73
2022-07-30T14:09:04.868Z,22.84
2022-07-30T14:11:33.215Z,22.88
2022-07-30T14:14:01.255Z,22.99
2022-07-30T14:16:44.654Z,23.05
2022-07-30T14:19:23.445Z,23.16
2022-07-30T14:21:54.266Z,23.37
2022-07-30T14:24:22.695Z,23.49
2022-07-30T14:26:57.430Z,23.54
2022-07-30T14:29:27.224Z,23.60
2022-07-30T14:31:55.391Z,23.65
2022-07-30T14:34:23.398Z,23.72
2022-07-30T14:36:51.896Z,23.84
2022-07-30T14:39:21.613Z,24.00
2022-07-30T14:41:52.392Z,24.04
2022-07-30T14:44:24.094Z,24.12
2022-07-30T14:46:52.960Z,24.25
2022-07-30T14:49:21.563Z,24.33
2022-07-30T14:51:51.042Z,24.30
2022-07-30T14:54:19.340Z,24.18
2022-07-30T14:56:48.644Z,24.08
2022-07-30T14:59:17.096Z,23.97
2022-07-30T15:01:45.149Z,23.89
2022-07-30T15:04:13.110Z,23.80
2022-07-30T15:06:41.878Z,23.72
2022-07-30T15:09:10.506Z,23.65
2022-07-30T15:12:04.186Z,23.59
2022-07-30T15:14:28.471Z,23.49
2022-07-30T15:16:59.530Z,23.44
2022-07-30T15:19:31.334Z,23.39
2022-07-30T15:22:02.223Z,23.36
2022-07-30T15:24:31.244Z,23.30
2022-07-30T15:26:59.250Z,23.29
2022-07-30T15:29:30.235Z,23.33
2022-07-30T15:32:00.200Z,23.43
2022-07-30T15:34:34.007Z,23.57
2022-07-30T15:37:02.718Z,23.64
2022-07-30T15:39:33.149Z,23.71
2022-07-30T15:42:01.838Z,23.71
2022-07-30T15:44:31.517Z,23.77
2022-07-30T15:46:59.532Z,23.90
2022-07-30T15:49:28.081Z,23.96
2022-07-30T15:51:56.089Z,24.00
2022-07-30T15:54:25.387Z,24.00
2022-07-30T15:57:01.104Z,24.11
2022-07-30T15:59:31.320Z,24.20
2022-07-30T16:01:59.973Z,24.20
2022-07-30T16:04:31.755Z,24.22
2022-07-30T16:07:00.726Z,24.15
2022-07-30T16:09:28.752Z,24.03
2022-07-30T16:11:56.713Z,24.00
2022-07-30T16:14:24.787Z,23.98
2022-07-30T16:16:54.032Z,23.89
2022-07-30T16:19:22.038Z,23.85
2022-07-30T16:21:50.106Z,23.84
2022-07-30T16:24:18.055Z,23.76
2022-07-30T16:26:46.035Z,23.72
2022-07-30T16:29:14.233Z,23.69
2022-07-30T16:31:42.297Z,23.67
2022-07-30T16:34:11.666Z,23.67
2022-07-30T16:36:39.586Z,23.67
2022-07-30T16:39:07.578Z,23.65
2022-07-30T16:41:35.579Z,23.62
2022-07-30T16:44:03.556Z,23.60
2022-07-30T16:46:31.500Z,23.56
2022-07-30T16:48:59.460Z,23.51
2022-07-30T16:51:28.868Z,23.43
2022-07-30T16:53:56.809Z,23.41
2022-07-30T16:56:24.746Z,23.37
2022-07-30T16:58:52.720Z,23.35
2022-07-30T17:01:20.830Z,23.34
2022-07-30T17:03:48.843Z,23.32
2022-07-30T17:06:16.772Z,23.26
2022-07-30T17:08:46.101Z,23.21
2022-07-30T17:11:46.512Z,23.14
2022-07-30T17:14:05.228Z,23.06
2022-07-30T17:16:33.150Z,23.03
2022-07-30T17:19:01.022Z,22.95
2022-07-30T17:21:38.045Z,22.89
2022-07-30T17:24:11.410Z,22.85
2022-07-30T17:26:42.953Z,22.84
2022-07-30T17:29:14.162Z,22.86
2022-07-30T17:31:44.189Z,22.85
2022-07-30T17:34:14.230Z,22.86
2022-07-30T17:36:52.065Z,22.84
2022-07-30T17:40:28.582Z,22.81
2022-07-30T17:42:11.447Z,22.72
2022-07-30T17:44:40.396Z,22.66
2022-07-30T17:47:14.374Z,22.60
2022-07-30T17:49:42.750Z,22.54
2022-07-30T17:52:10.739Z,22.47
2022-07-30T17:54:40.052Z,22.33
2022-07-30T17:57:08.027Z,22.22
2022-07-30T17:59:36.123Z,22.16
2022-07-30T18:02:05.366Z,22.06
2022-07-30T18:04:34.894Z,22.04
2022-07-30T18:07:03.349Z,21.98
2022-07-30T18:09:39.594Z,21.90
2022-07-30T18:12:09.800Z,21.85
2022-07-30T18:14:38.717Z,21.76
2022-07-30T18:17:10.095Z,21.71
2022-07-30T18:19:42.281Z,21.61
2022-07-30T18:22:10.463Z,21.57
2022-07-30T18:24:43.970Z,21.54
2022-07-30T18:27:13.840Z,21.49
2022-07-30T18:29:42.203Z,21.43
2022-07-30T18:32:10.167Z,21.40
2022-07-30T18:34:38.094Z,21.34
2022-07-30T18:37:06.035Z,21.34
2022-07-30T18:39:33.986Z,21.27
2022-07-30T18:42:02.417Z,21.18
2022-07-30T18:44:32.205Z,21.19
2022-07-30T18:47:00.460Z,21.14
2022-07-30T18:49:37.417Z,21.09
2022-07-30T18:52:07.439Z,21.07
2022-07-30T18:54:35.952Z,20.98
2022-07-30T18:57:04.424Z,20.91
2022-07-30T18:59:33.709Z,20.85
2022-07-30T19:02:02.087Z,20.82
2022-07-30T19:04:31.356Z,20.80
2022-07-30T19:06:59.387Z,20.76
2022-07-30T19:09:27.769Z,20.70
2022-07-30T19:11:55.670Z,20.61
2022-07-30T19:14:23.603Z,20.51
2022-07-30T19:16:53.093Z,20.43
2022-07-30T19:19:20.993Z,20.43
2022-07-30T19:21:49.111Z,20.35
2022-07-30T19:24:17.011Z,20.33
2022-07-30T19:26:44.935Z,20.28
2022-07-30T19:29:12.879Z,20.18
2022-07-30T19:31:41.649Z,20.15
2022-07-30T19:34:11.831Z,20.11
2022-07-30T19:36:39.903Z,20.05
2022-07-30T19:39:10.190Z,19.94
2022-07-30T19:41:41.472Z,19.94
2022-07-30T19:44:09.867Z,19.90
2022-07-30T19:46:38.703Z,19.82
2022-07-30T19:49:11.044Z,19.75
2022-07-30T19:52:09.925Z,19.71
2022-07-30T19:54:29.311Z,19.65
2022-07-30T19:56:57.180Z,19.61
2022-07-30T19:59:43.689Z,19.57
2022-07-30T20:02:15.763Z,19.49
2022-07-30T20:04:45.079Z,19.47
2022-07-30T20:07:13.660Z,19.44
2022-07-30T20:09:44.704Z,19.40
2022-07-30T20:12:16.496Z,19.37
2022-07-30T20:14:45.151Z,19.31
2022-07-30T20:17:13.189Z,19.30
2022-07-30T20:19:47.854Z,19.30
2022-07-30T20:22:18.036Z,19.26
2022-07-30T20:24:48.552Z,19.25
2022-07-30T20:27:35.437Z,19.24
2022-07-30T20:30:05.478Z,19.21
2022-07-30T20:32:33.747Z,19.21
2022-07-30T20:35:01.720Z,19.23
2022-07-30T20:37:31.221Z,19.21
2022-07-30T20:39:59.210Z,19.20
2022-07-30T20:42:28.359Z,19.20
2022-07-30T20:44:58.337Z,19.17
2022-07-30T20:47:37.411Z,19.15
2022-07-30T20:50:09.831Z,19.13
2022-07-30T20:52:40.523Z,19.18
2022-07-30T20:55:09.594Z,19.16
2022-07-30T21:00:29.167Z,19.12
2022-07-30T21:02:57.072Z,19.12
2022-07-30T21:05:26.887Z,19.12
2022-07-30T21:07:56.591Z,19.05
2022-07-30T21:10:26.060Z,19.00
2022-07-30T21:13:02.970Z,19.03
2022-07-30T21:15:32.839Z,19.03
2022-07-30T21:18:01.557Z,19.01
2022-07-30T21:20:30.544Z,18.98
2022-07-30T21:23:06.570Z,18.94
2022-07-30T21:26:00.874Z,18.93
2022-07-30T21:28:28.163Z,18.91
2022-07-30T21:30:57.240Z,18.90
2022-07-30T21:33:31.345Z,18.88
2022-07-30T21:35:59.759Z,18.85
2022-07-30T21:38:30.452Z,18.82
2022-07-30T21:40:58.696Z,18.78
2022-07-30T21:43:29.832Z,18.73
2022-07-30T21:45:58.635Z,18.73
2022-07-30T21:48:26.684Z,18.70
2022-07-30T21:50:55.344Z,18.70
2022-07-30T21:53:29.542Z,18.68
2022-07-30T21:56:13.346Z,18.65
2022-07-30T21:58:42.160Z,18.62
2022-07-30T22:01:17.446Z,18.62
2022-07-30T22:04:03.680Z,18.56
2022-07-30T22:06:35.307Z,18.51
2022-07-30T22:09:06.297Z,18.53
2022-07-30T22:11:48.222Z,18.52
2022-07-30T22:14:16.132Z,18.49
2022-07-30T22:16:46.052Z,18.48
2022-07-30T22:19:14.699Z,18.43
2022-07-30T22:21:46.678Z,18.47
2022-07-30T22:24:26.245Z,18.46
2022-07-30T22:27:01.674Z,18.43
2022-07-30T22:29:42.512Z,18.41
2022-07-30T22:32:10.979Z,18.39
2022-07-30T22:34:39.393Z,18.41
2022-07-30T22:37:12.676Z,18.39
2022-07-30T22:39:51.944Z,18.37
2022-07-30T22:42:23.975Z,18.33
2022-07-30T22:44:53.090Z,18.34
2022-07-30T22:47:50.693Z,18.30
2022-07-30T22:50:11.753Z,18.28
2022-07-30T22:52:44.360Z,18.32
2022-07-30T22:55:23.288Z,18.32
2022-07-30T22:57:53.800Z,18.31
2022-07-30T23:00:27.162Z,18.25
2022-07-30T23:02:57.075Z,18.28
2022-07-30T23:05:25.572Z,18.31
2022-07-30T23:07:54.294Z,18.33
2022-07-30T23:10:25.639Z,18.32
2022-07-30T23:12:26.542Z,19.15
2022-07-30T23:12:57.187Z,18.34
2022-07-30T23:15:25.263Z,18.32
2022-07-30T23:17:53.278Z,18.34
2022-07-30T23:20:22.867Z,18.31
2022-07-30T23:22:51.120Z,18.33
2022-07-30T23:25:19.112Z,18.35
2022-07-30T23:27:48.090Z,18.34
2022-07-30T23:30:17.376Z,18.34
2022-07-30T23:32:45.266Z,18.35
2022-07-30T23:35:13.161Z,18.33
2022-07-30T23:37:48.877Z,18.31
2022-07-30T23:40:18.510Z,18.27
2022-07-30T23:42:46.858Z,18.23
2022-07-30T23:45:14.754Z,18.21
2022-07-30T23:48:00.693Z,18.20
2022-07-30T23:50:30.502Z,18.16
2022-07-30T23:52:58.579Z,18.13
2022-07-30T23:55:27.162Z,18.09
2022-07-30T23:57:55.321Z,18.04
